Bi Jia Shan — VRJG7 — position and weather

sailwx.info

Track history (hours):
 
Tides and Currents Weather Stations Pressure Air Temp Water Temp Dewpoint Dewpoint Depression Visibility Wind Speed Wind Dir Waves Ship Positions

Bi Jia Shan

Last reported at 2017-Oct-15 07:59 UTC. Time now 2017-Oct-17 17:09 UTC.
Position N 39°26' W 032°11'.

Length 189 m; draft 9.5 m.

Type: Cargo ship. MMSI: 477847500.

Date/timePositionNaut miles runAvg speedWind from/ knotsBaromVisibWave heightAir tempDewpointWater temp
2017-Oct-15 07:59N 39°26' W 032°11'612.4
2017-Oct-15 07:30N 39°28' W 032°04'612.2
2017-Oct-15 07:00N 39°30' W 031°57'612.4
2017-Oct-15 06:30N 39°33' W 031°49'612.5
2017-Oct-15 06:00N 39°35' W 031°42'612.8
2017-Oct-15 05:30N 39°38' W 031°34'612.6
2017-Oct-15 05:00N 39°41' W 031°27'612.6
2017-Oct-15 04:30N 39°43' W 031°19'612.5
2017-Oct-15 04:00N 39°46' W 031°12'912.1
2017-Oct-15 03:16N 39°49' W 031°01'312.2
2017-Oct-15 03:00N 39°50' W 030°57'612.1
2017-Oct-15 02:30N 39°52' W 030°50'611.9
2017-Oct-15 02:00N 39°54' W 030°42'45011.8
2017-Oct-13 11:55N 42°08' W 021°14'3812.9
2017-Oct-13 08:57N 42°17' W 020°24'812.4
2017-Oct-13 08:19N 42°19' W 020°13'412.8
2017-Oct-13 08:00N 42°20' W 020°08'912.7
2017-Oct-13 07:17N 42°22' W 019°56'512.6
2017-Oct-13 06:55N 42°23' W 019°50'512.8
2017-Oct-13 06:30N 42°24' W 019°43'3512.9
2017-Oct-13 03:49N 42°32' W 018°57'512.8
2017-Oct-13 03:27N 42°33' W 018°51'612.8
2017-Oct-13 03:00N 42°34' W 018°43'  
2017-Oct-07 20:52N 43°22' W 008°33'1 3.6
2017-Oct-07 20:30N 43°23' W 008°35'3 5.5
2017-Oct-07 20:00N 43°23' W 008°38'510.2
2017-Oct-07 19:30N 43°24' W 008°45'611.8
2017-Oct-07 19:00N 43°24' W 008°53'611.6
2017-Oct-07 18:30N 43°24' W 009°01'711.3
2017-Oct-07 17:52N 43°24' W 009°11'412.1
2017-Oct-07 17:30N 43°23' W 009°17'510.6
2017-Oct-07 17:00N 43°23' W 009°25'611.0
2017-Oct-07 16:30N 43°22' W 009°32'610.6
2017-Oct-07 15:57N 43°20' W 009°40'511.8
2017-Oct-07 15:30N 43°15' W 009°44'612.3
2017-Oct-07 15:00N 43°10' W 009°46'812.7
2017-Oct-07 14:24N 43°02' W 009°47'513.0
2017-Oct-07 14:00N 42°57' W 009°47'713.1
2017-Oct-07 13:30N 42°50' W 009°47'9513.0
2017-Oct-07 06:15N 41°16' W 009°49'2312.8
2017-Oct-07 04:28N 40°53' W 009°49'613.0
2017-Oct-07 04:00N 40°47' W 009°50'713.0
2017-Oct-07 03:30N 40°40' W 009°50'613.0
2017-Oct-07 03:00N 40°34' W 009°50'713.3
2017-Oct-07 02:30N 40°27' W 009°50'713.3
2017-Oct-07 02:01N 40°21' W 009°50'713.5
2017-Oct-07 01:31N 40°14' W 009°50'713.4
2017-Oct-07 01:01N 40°07' W 009°50'613.0
2017-Oct-07 00:31N 40°01' W 009°49'713.1
2017-Oct-07 00:01N 39°54' W 009°50'613.0
2017-Oct-06 23:30N 39°48' W 009°51'612.9
2017-Oct-06 23:00N 39°41' W 009°51'612.9
2017-Oct-06 22:31N 39°35' W 009°51'612.8
2017-Oct-06 22:01N 39°29' W 009°51'612.7
2017-Oct-06 21:30N 39°22' W 009°51'612.6
2017-Oct-06 21:00N 39°16' W 009°51'612.9
2017-Oct-06 20:30N 39°09' W 009°51'612.7
2017-Oct-06 20:00N 39°03' W 009°51'612.3
2017-Oct-06 19:30N 38°57' W 009°52'612.0
2017-Oct-06 19:00N 38°51' W 009°52'612.1
2017-Oct-06 18:30N 38°45' W 009°51'612.7
2017-Oct-06 18:01N 38°39' W 009°49'612.8
2017-Oct-06 17:30N 38°32' W 009°48'612.1
2017-Oct-06 17:00N 38°26' W 009°46'612.4
2017-Oct-06 16:30N 38°20' W 009°44'612.5
2017-Oct-06 16:00N 38°14' W 009°42'612.5
2017-Oct-06 15:30N 38°08' W 009°41'612.6
2017-Oct-06 15:00N 38°02' W 009°39'612.7
2017-Oct-06 14:30N 37°56' W 009°37'612.8
2017-Oct-06 14:00N 37°50' W 009°35'713.2
2017-Oct-06 13:30N 37°43' W 009°33'713.1
2017-Oct-06 13:00N 37°37' W 009°30'713.0
2017-Oct-06 12:30N 37°31' W 009°29'713.3
2017-Oct-06 12:00N 37°24' W 009°27'713.0
2017-Oct-06 11:31N 37°18' W 009°26'612.8
2017-Oct-06 11:00N 37°11' W 009°24'612.7
2017-Oct-06 10:30N 37°05' W 009°23'612.6
2017-Oct-06 10:00N 36°59' W 009°21'612.7
2017-Oct-06 09:30N 36°53' W 009°18'612.3
2017-Oct-06 09:00N 36°48' W 009°13'612.4
2017-Oct-06 08:30N 36°45' W 009°07'713.1
2017-Oct-06 08:00N 36°42' W 008°60'612.8
2017-Oct-06 07:30N 36°40' W 008°52'813.0
2017-Oct-06 06:56N 36°37' W 008°43'613.2
2017-Oct-06 06:27N 36°35' W 008°36'613.9
2017-Oct-06 06:00N 36°34' W 008°28'813.3
2017-Oct-06 05:23N 36°31' W 008°18'1213.8
2017-Oct-06 04:29N 36°27' W 008°04'713.6
2017-Oct-06 04:00N 36°25' W 007°56'713.7
2017-Oct-06 03:30N 36°23' W 007°48'713.6
2017-Oct-06 02:58N 36°21' W 007°39'613.7
2017-Oct-06 02:30N 36°19' W 007°32'713.4
2017-Oct-06 02:00N 36°17' W 007°24'1913.4
2017-Oct-06 00:35N 36°11' W 007°02'113.2
2017-Oct-06 00:30N 36°11' W 007°00'913.2
2017-Oct-05 23:50N 36°08' W 006°50'413.4
2017-Oct-05 23:30N 36°06' W 006°45'2113.3
2017-Oct-05 21:57N 35°60' W 006°21'1114.3
2017-Oct-05 21:11N 35°57' W 006°08'314.4
2017-Oct-05 20:57N 35°57' W 006°03'714.2
2017-Oct-05 20:27N 35°57' W 005°54'613.6
2017-Oct-05 20:00N 35°57' W 005°47'713.0
2017-Oct-05 19:28N 35°57' W 005°39'511.5
2017-Oct-05 19:00N 35°58' W 005°32'510.6
2017-Oct-05 18:30N 36°01' W 005°26'612.3
2017-Oct-05 18:00N 36°07' W 005°24'3 0.6
2017-Oct-05 12:48N 36°09' W 005°25'0 0.0
2017-Oct-05 12:24N 36°09' W 005°25'0 0.2
2017-Oct-05 12:00N 36°10' W 005°25'2 2.5
2017-Oct-05 11:24N 36°08' W 005°25'2 6.1
2017-Oct-05 11:00N 36°06' W 005°24'3 5.2
2017-Oct-05 10:30N 36°04' W 005°22'3 5.2
2017-Oct-05 10:00N 36°03' W 005°19'2 4.8
2017-Oct-05 09:30N 36°04' W 005°16'  
Track history (hours):
 
Tides and Currents Weather Stations Pressure Air Temp Water Temp Dewpoint Dewpoint Depression Visibility Wind Speed Wind Dir Waves Ship Positions

Bi Jia Shan

Last reported at 2017-Oct-15 07:59 UTC. Time now 2017-Oct-17 17:09 UTC.
Position N 39°26' W 032°11'.

Length 189 m; draft 9.5 m.

Type: Cargo ship. MMSI: 477847500.

Date/timePositionNaut miles runAvg speedWind from/ knotsBaromVisibWave heightAir tempDewpointWater temp
2017-Oct-15 07:59N 39°26' W 032°11'612.4
2017-Oct-15 07:30N 39°28' W 032°04'612.2
2017-Oct-15 07:00N 39°30' W 031°57'612.4
2017-Oct-15 06:30N 39°33' W 031°49'612.5
2017-Oct-15 06:00N 39°35' W 031°42'612.8
2017-Oct-15 05:30N 39°38' W 031°34'612.6
2017-Oct-15 05:00N 39°41' W 031°27'612.6
2017-Oct-15 04:30N 39°43' W 031°19'612.5
2017-Oct-15 04:00N 39°46' W 031°12'912.1
2017-Oct-15 03:16N 39°49' W 031°01'312.2
2017-Oct-15 03:00N 39°50' W 030°57'612.1
2017-Oct-15 02:30N 39°52' W 030°50'611.9
2017-Oct-15 02:00N 39°54' W 030°42'45011.8
2017-Oct-13 11:55N 42°08' W 021°14'3812.9
2017-Oct-13 08:57N 42°17' W 020°24'812.4
2017-Oct-13 08:19N 42°19' W 020°13'412.8
2017-Oct-13 08:00N 42°20' W 020°08'912.7
2017-Oct-13 07:17N 42°22' W 019°56'512.6
2017-Oct-13 06:55N 42°23' W 019°50'512.8
2017-Oct-13 06:30N 42°24' W 019°43'3512.9
2017-Oct-13 03:49N 42°32' W 018°57'512.8
2017-Oct-13 03:27N 42°33' W 018°51'612.8
2017-Oct-13 03:00N 42°34' W 018°43'  
2017-Oct-07 20:52N 43°22' W 008°33'1 3.6
2017-Oct-07 20:30N 43°23' W 008°35'3 5.5
2017-Oct-07 20:00N 43°23' W 008°38'510.2
2017-Oct-07 19:30N 43°24' W 008°45'611.8
2017-Oct-07 19:00N 43°24' W 008°53'611.6
2017-Oct-07 18:30N 43°24' W 009°01'711.3
2017-Oct-07 17:52N 43°24' W 009°11'412.1
2017-Oct-07 17:30N 43°23' W 009°17'510.6
2017-Oct-07 17:00N 43°23' W 009°25'611.0
2017-Oct-07 16:30N 43°22' W 009°32'610.6
2017-Oct-07 15:57N 43°20' W 009°40'511.8
2017-Oct-07 15:30N 43°15' W 009°44'612.3
2017-Oct-07 15:00N 43°10' W 009°46'812.7
2017-Oct-07 14:24N 43°02' W 009°47'513.0
2017-Oct-07 14:00N 42°57' W 009°47'713.1
2017-Oct-07 13:30N 42°50' W 009°47'9513.0
2017-Oct-07 06:15N 41°16' W 009°49'2312.8
2017-Oct-07 04:28N 40°53' W 009°49'613.0
2017-Oct-07 04:00N 40°47' W 009°50'713.0
2017-Oct-07 03:30N 40°40' W 009°50'613.0
2017-Oct-07 03:00N 40°34' W 009°50'713.3
2017-Oct-07 02:30N 40°27' W 009°50'713.3
2017-Oct-07 02:01N 40°21' W 009°50'713.5
2017-Oct-07 01:31N 40°14' W 009°50'713.4
2017-Oct-07 01:01N 40°07' W 009°50'613.0
2017-Oct-07 00:31N 40°01' W 009°49'713.1
2017-Oct-07 00:01N 39°54' W 009°50'613.0
2017-Oct-06 23:30N 39°48' W 009°51'612.9
2017-Oct-06 23:00N 39°41' W 009°51'612.9
2017-Oct-06 22:31N 39°35' W 009°51'612.8
2017-Oct-06 22:01N 39°29' W 009°51'612.7
2017-Oct-06 21:30N 39°22' W 009°51'612.6
2017-Oct-06 21:00N 39°16' W 009°51'612.9
2017-Oct-06 20:30N 39°09' W 009°51'612.7
2017-Oct-06 20:00N 39°03' W 009°51'612.3
2017-Oct-06 19:30N 38°57' W 009°52'612.0
2017-Oct-06 19:00N 38°51' W 009°52'612.1
2017-Oct-06 18:30N 38°45' W 009°51'612.7
2017-Oct-06 18:01N 38°39' W 009°49'612.8
2017-Oct-06 17:30N 38°32' W 009°48'612.1
2017-Oct-06 17:00N 38°26' W 009°46'612.4
2017-Oct-06 16:30N 38°20' W 009°44'612.5
2017-Oct-06 16:00N 38°14' W 009°42'612.5
2017-Oct-06 15:30N 38°08' W 009°41'612.6
2017-Oct-06 15:00N 38°02' W 009°39'612.7
2017-Oct-06 14:30N 37°56' W 009°37'612.8
2017-Oct-06 14:00N 37°50' W 009°35'713.2
2017-Oct-06 13:30N 37°43' W 009°33'713.1
2017-Oct-06 13:00N 37°37' W 009°30'713.0
2017-Oct-06 12:30N 37°31' W 009°29'713.3
2017-Oct-06 12:00N 37°24' W 009°27'713.0
2017-Oct-06 11:31N 37°18' W 009°26'612.8
2017-Oct-06 11:00N 37°11' W 009°24'612.7
2017-Oct-06 10:30N 37°05' W 009°23'612.6
2017-Oct-06 10:00N 36°59' W 009°21'612.7
2017-Oct-06 09:30N 36°53' W 009°18'612.3
2017-Oct-06 09:00N 36°48' W 009°13'612.4
2017-Oct-06 08:30N 36°45' W 009°07'713.1
2017-Oct-06 08:00N 36°42' W 008°60'612.8
2017-Oct-06 07:30N 36°40' W 008°52'813.0
2017-Oct-06 06:56N 36°37' W 008°43'613.2
2017-Oct-06 06:27N 36°35' W 008°36'613.9
2017-Oct-06 06:00N 36°34' W 008°28'813.3
2017-Oct-06 05:23N 36°31' W 008°18'1213.8
2017-Oct-06 04:29N 36°27' W 008°04'713.6
2017-Oct-06 04:00N 36°25' W 007°56'713.7
2017-Oct-06 03:30N 36°23' W 007°48'713.6
2017-Oct-06 02:58N 36°21' W 007°39'613.7
2017-Oct-06 02:30N 36°19' W 007°32'713.4
2017-Oct-06 02:00N 36°17' W 007°24'1913.4
2017-Oct-06 00:35N 36°11' W 007°02'113.2
2017-Oct-06 00:30N 36°11' W 007°00'913.2
2017-Oct-05 23:50N 36°08' W 006°50'413.4
2017-Oct-05 23:30N 36°06' W 006°45'2113.3
2017-Oct-05 21:57N 35°60' W 006°21'1114.3
2017-Oct-05 21:11N 35°57' W 006°08'314.4
2017-Oct-05 20:57N 35°57' W 006°03'714.2
2017-Oct-05 20:27N 35°57' W 005°54'613.6
2017-Oct-05 20:00N 35°57' W 005°47'713.0
2017-Oct-05 19:28N 35°57' W 005°39'511.5
2017-Oct-05 19:00N 35°58' W 005°32'510.6
2017-Oct-05 18:30N 36°01' W 005°26'612.3
2017-Oct-05 18:00N 36°07' W 005°24'3 0.6
2017-Oct-05 12:48N 36°09' W 005°25'0 0.0
2017-Oct-05 12:24N 36°09' W 005°25'0 0.2
2017-Oct-05 12:00N 36°10' W 005°25'2 2.5
2017-Oct-05 11:24N 36°08' W 005°25'2 6.1
2017-Oct-05 11:00N 36°06' W 005°24'3 5.2
2017-Oct-05 10:30N 36°04' W 005°22'3 5.2
2017-Oct-05 10:00N 36°03' W 005°19'2 4.8
2017-Oct-05 09:30N 36°04' W 005°16'  

Dump ship's entire track history